Time;durP1;ratioP1;P1;durP2;ratioP2;P2;SDS_P1;SDS_P2;PMS_P1;PMS_P2;Temp;Humidity;BMP_temperature;BMP_pressure;BME280_temperature;BME280_humidity;BME280_pressure;Samples;Min_cycle;Max_cycle;Signal;HPM_P1;HPM_P2
2022/02/15 00:00:18;;;;;;;8.03;2.43;;;;;;;;;;5047105;28;20189;-66
2022/02/15 00:02:43;;;;;;;4.38;2.47;;;;;;;;;;5039563;28;20185;-66
2022/02/15 00:05:09;;;;;;;5.17;2.60;;;;;;;;;;5040001;28;20189;-66
2022/02/15 00:07:35;;;;;;;6.77;2.23;;;;;;;;;;5042464;28;20348;-66
2022/02/15 00:10:01;;;;;;;9.88;2.55;;;;;;;;;;5046083;28;20273;-67
2022/02/15 00:12:26;;;;;;;4.43;1.92;;;;;;;;;;5044133;28;20186;-66
2022/02/15 00:14:52;;;;;;;5.17;2.30;;;;;;;;;;5046987;28;20231;-66
2022/02/15 00:17:17;;;;;;;6.75;2.30;;;;;;;;;;5042249;28;20189;-66
2022/02/15 00:19:42;;;;;;;6.60;3.00;;;;;;;;;;5044000;28;20276;-67
2022/02/15 00:22:08;;;;;;;4.07;2.33;;;;;;;;;;5040505;28;20189;-67
2022/02/15 00:24:33;;;;;;;4.27;2.83;;;;;;;;;;5044657;28;20683;-67
2022/02/15 00:26:59;;;;;;;7.60;2.73;;;;;;;;;;5043216;28;20189;-66
2022/02/15 00:29:24;;;;;;;4.37;2.70;;;;;;;;;;5048097;28;20210;-67
2022/02/15 00:31:49;;;;;;;6.60;3.30;;;;;;;;;;5040008;28;20212;-66
2022/02/15 00:34:15;;;;;;;6.37;2.97;;;;;;;;;;5042073;28;20269;-67
2022/02/15 00:36:40;;;;;;;5.00;3.10;;;;;;;;;;5041905;28;20279;-66
2022/02/15 00:39:05;;;;;;;6.97;3.00;;;;;;;;;;5041267;28;20646;-67
2022/02/15 00:41:31;;;;;;;4.43;3.10;;;;;;;;;;5040982;28;20717;-68
2022/02/15 00:43:56;;;;;;;7.00;3.53;;;;;;;;;;5042926;28;20467;-67
2022/02/15 00:46:22;;;;;;;8.17;3.30;;;;;;;;;;5041835;28;20200;-66
2022/02/15 00:48:47;;;;;;;5.77;3.37;;;;;;;;;;5040205;28;20186;-66
2022/02/15 00:51:12;;;;;;;7.30;3.43;;;;;;;;;;5040228;28;20641;-67
2022/02/15 00:53:38;;;;;;;4.90;2.97;;;;;;;;;;5042080;28;20177;-65
2022/02/15 00:56:04;;;;;;;6.93;3.70;;;;;;;;;;5044606;28;20204;-65
2022/02/15 00:58:29;;;;;;;7.97;4.03;;;;;;;;;;5045070;28;20193;-66
2022/02/15 01:00:54;;;;;;;6.93;3.60;;;;;;;;;;5044908;28;20237;-67
2022/02/15 01:03:20;;;;;;;7.33;3.57;;;;;;;;;;5041314;28;20206;-67
2022/02/15 01:05:45;;;;;;;6.80;3.80;;;;;;;;;;5043651;28;21202;-66
2022/02/15 01:08:12;;;;;;;7.30;4.03;;;;;;;;;;5042120;28;20225;-66
2022/02/15 01:10:38;;;;;;;6.93;3.80;;;;;;;;;;5045754;28;20193;-66
2022/02/15 01:13:04;;;;;;;4.97;3.80;;;;;;;;;;5044469;28;20178;-67
2022/02/15 01:15:29;;;;;;;8.47;4.37;;;;;;;;;;5045322;28;20291;-66
2022/02/15 01:17:55;;;;;;;5.23;3.37;;;;;;;;;;5043909;28;20190;-66
2022/02/15 01:20:20;;;;;;;7.90;3.90;;;;;;;;;;5049662;28;20283;-67
2022/02/15 01:22:46;;;;;;;10.77;3.90;;;;;;;;;;5043666;28;20292;-67
2022/02/15 01:25:11;;;;;;;5.83;3.50;;;;;;;;;;5044386;28;20544;-67
2022/02/15 01:27:36;;;;;;;6.67;3.73;;;;;;;;;;5042889;28;20260;-67
2022/02/15 01:30:03;;;;;;;7.40;4.13;;;;;;;;;;5041774;28;20200;-67
2022/02/15 01:32:29;;;;;;;8.00;4.40;;;;;;;;;;5045005;28;20197;-66
2022/02/15 01:34:54;;;;;;;4.97;3.23;;;;;;;;;;5047858;28;20235;-66
2022/02/15 01:37:20;;;;;;;7.30;3.13;;;;;;;;;;5039167;28;20222;-66
2022/02/15 01:39:45;;;;;;;9.57;3.37;;;;;;;;;;5047040;28;20679;-66
2022/02/15 01:42:10;;;;;;;6.67;3.20;;;;;;;;;;5045815;28;20200;-67
2022/02/15 01:44:36;;;;;;;5.37;3.43;;;;;;;;;;5044531;28;20202;-66
2022/02/15 01:47:03;;;;;;;4.20;3.33;;;;;;;;;;5047163;28;20204;-66
2022/02/15 01:49:28;;;;;;;6.97;3.30;;;;;;;;;;5042276;28;20568;-66
2022/02/15 01:51:53;;;;;;;6.77;3.90;;;;;;;;;;5046065;28;20197;-67
2022/02/15 01:54:19;;;;;;;6.50;3.60;;;;;;;;;;5038878;28;20270;-67
2022/02/15 01:56:44;;;;;;;6.33;4.20;;;;;;;;;;5046191;28;20189;-67
2022/02/15 01:59:10;;;;;;;7.23;3.53;;;;;;;;;;5046050;28;20657;-67
2022/02/15 02:01:35;;;;;;;7.63;3.87;;;;;;;;;;5045223;28;20204;-67
2022/02/15 02:04:00;;;;;;;8.80;4.27;;;;;;;;;;5041470;28;20211;-67
2022/02/15 02:06:26;;;;;;;5.80;4.40;;;;;;;;;;5043124;28;20231;-65
2022/02/15 02:08:52;;;;;;;8.63;4.60;;;;;;;;;;5057403;28;20189;-66
2022/02/15 02:11:17;;;;;;;11.07;3.87;;;;;;;;;;5044073;28;20274;-66
2022/02/15 02:13:43;;;;;;;9.00;4.70;;;;;;;;;;5051023;28;20615;-66
2022/02/15 02:16:09;;;;;;;8.63;4.20;;;;;;;;;;5045770;28;20181;-67
2022/02/15 02:18:34;;;;;;;6.78;4.10;;;;;;;;;;5049403;28;20247;-67
2022/02/15 02:21:04;;;;;;;8.63;4.20;;;;;;;;;;5041798;28;20657;-66
2022/02/15 02:23:30;;;;;;;7.23;4.10;;;;;;;;;;5046734;28;20297;-66
2022/02/15 02:25:56;;;;;;;6.70;3.90;;;;;;;;;;5044636;28;20186;-66
2022/02/15 02:28:21;;;;;;;7.87;3.80;;;;;;;;;;5044339;28;20213;-66
2022/02/15 02:30:47;;;;;;;6.03;3.93;;;;;;;;;;5043122;28;20292;-66
2022/02/15 02:33:12;;;;;;;5.90;3.70;;;;;;;;;;5040930;28;20344;-66
2022/02/15 02:35:38;;;;;;;6.57;3.60;;;;;;;;;;5043776;28;20202;-66
2022/02/15 02:38:03;;;;;;;6.40;3.42;;;;;;;;;;5036792;28;20694;-67
2022/02/15 02:40:29;;;;;;;7.60;3.55;;;;;;;;;;5047420;28;20265;-67
2022/02/15 02:42:54;;;;;;;5.80;3.53;;;;;;;;;;5044620;28;20196;-67
2022/02/15 02:45:21;;;;;;;7.63;3.80;;;;;;;;;;5044565;28;20548;-67
2022/02/15 02:47:49;;;;;;;8.65;3.70;;;;;;;;;;5035854;28;20842;-66
2022/02/15 02:50:16;;;;;;;6.33;3.70;;;;;;;;;;5043214;28;20189;-66
2022/02/15 02:52:42;;;;;;;12.30;4.13;;;;;;;;;;5043290;28;20251;-67
2022/02/15 02:55:08;;;;;;;5.23;3.20;;;;;;;;;;5042389;28;20204;-67
2022/02/15 02:57:35;;;;;;;5.00;3.33;;;;;;;;;;5048181;28;20185;-67
2022/02/15 03:00:03;;;;;;;7.60;3.40;;;;;;;;;;5042965;28;20559;-67
2022/02/15 03:02:28;;;;;;;13.33;5.20;;;;;;;;;;5042058;28;20189;-67
2022/02/15 03:04:53;;;;;;;9.57;3.87;;;;;;;;;;5044709;28;20275;-65
2022/02/15 03:07:19;;;;;;;5.10;3.37;;;;;;;;;;5041968;28;20260;-66
2022/02/15 03:09:44;;;;;;;7.03;3.87;;;;;;;;;;5047219;28;20637;-66
2022/02/15 03:12:11;;;;;;;5.93;3.77;;;;;;;;;;5040796;28;20201;-66
2022/02/15 03:14:37;;;;;;;7.43;4.07;;;;;;;;;;5042265;28;20281;-66
2022/02/15 03:17:02;;;;;;;9.97;4.47;;;;;;;;;;5046070;28;20273;-66
2022/02/15 03:19:28;;;;;;;7.73;4.63;;;;;;;;;;5043567;28;20652;-66
2022/02/15 03:21:53;;;;;;;8.37;5.13;;;;;;;;;;5051025;28;20718;-66
2022/02/15 03:24:19;;;;;;;8.37;4.43;;;;;;;;;;5047223;28;20225;-66
2022/02/15 03:26:44;;;;;;;6.97;4.87;;;;;;;;;;5046999;28;20689;-66
2022/02/15 03:29:12;;;;;;;8.40;4.93;;;;;;;;;;5041166;28;20186;-66
2022/02/15 03:31:39;;;;;;;17.13;5.63;;;;;;;;;;5048301;28;20590;-66
2022/02/15 03:34:04;;;;;;;8.77;4.90;;;;;;;;;;5036731;28;20200;-66
2022/02/15 03:36:29;;;;;;;7.00;4.67;;;;;;;;;;5046101;28;20186;-67
2022/02/15 03:38:55;;;;;;;11.20;5.63;;;;;;;;;;5043937;28;20559;-67
2022/02/15 03:44:04;;;;;;;8.03;5.57;;;;;;;;;;5037380;28;20224;-67
2022/02/15 03:46:29;;;;;;;8.97;5.60;;;;;;;;;;5039120;28;20182;-66
2022/02/15 03:48:55;;;;;;;11.90;6.33;;;;;;;;;;5039849;28;20708;-66
2022/02/15 03:51:20;;;;;;;12.30;5.60;;;;;;;;;;5037953;28;20186;-66
2022/02/15 03:53:45;;;;;;;12.40;5.97;;;;;;;;;;5044044;28;20273;-66
2022/02/15 03:56:11;;;;;;;13.60;6.33;;;;;;;;;;5044067;28;20676;-66
2022/02/15 03:58:37;;;;;;;13.47;6.13;;;;;;;;;;5045823;28;20719;-67
2022/02/15 04:01:03;;;;;;;13.33;6.17;;;;;;;;;;5043671;28;20174;-67
2022/02/15 04:03:28;;;;;;;13.03;6.50;;;;;;;;;;5043433;28;20209;-67
2022/02/15 04:05:54;;;;;;;14.60;6.63;;;;;;;;;;5045467;28;20262;-67
2022/02/15 04:08:22;;;;;;;14.33;6.33;;;;;;;;;;5043819;28;20250;-67
2022/02/15 04:10:47;;;;;;;10.60;6.27;;;;;;;;;;5039524;28;20561;-65
2022/02/15 04:13:13;;;;;;;12.90;6.30;;;;;;;;;;5036546;28;20268;-66
2022/02/15 04:15:38;;;;;;;11.63;6.53;;;;;;;;;;5043443;28;20220;-65
2022/02/15 04:18:03;;;;;;;9.13;6.37;;;;;;;;;;5042864;28;20215;-67
2022/02/15 04:20:29;;;;;;;11.70;6.37;;;;;;;;;;5042238;28;20182;-67
2022/02/15 04:22:54;;;;;;;15.93;7.23;;;;;;;;;;5044135;28;20193;-66
2022/02/15 04:25:19;;;;;;;13.70;6.40;;;;;;;;;;5043770;28;20196;-66
2022/02/15 04:27:45;;;;;;;13.77;6.50;;;;;;;;;;5040277;28;20294;-65
2022/02/15 04:30:10;;;;;;;15.07;6.27;;;;;;;;;;5039260;28;20232;-66
2022/02/15 04:32:36;;;;;;;13.30;6.03;;;;;;;;;;5037617;28;20485;-66
2022/02/15 04:35:01;;;;;;;12.40;6.43;;;;;;;;;;5045357;28;20173;-66
2022/02/15 04:37:27;;;;;;;13.23;6.60;;;;;;;;;;5046686;28;20181;-66
2022/02/15 04:39:52;;;;;;;15.80;6.10;;;;;;;;;;5042947;28;20190;-66
2022/02/15 04:42:18;;;;;;;14.00;6.90;;;;;;;;;;5036909;28;20185;-66
2022/02/15 04:44:43;;;;;;;15.20;6.90;;;;;;;;;;5040030;28;20283;-66
2022/02/15 04:47:09;;;;;;;12.80;7.13;;;;;;;;;;5035263;28;20182;-66
2022/02/15 04:49:34;;;;;;;15.90;7.80;;;;;;;;;;5040311;28;20550;-66
2022/02/15 04:52:00;;;;;;;18.50;7.50;;;;;;;;;;5042666;28;20178;-67
2022/02/15 04:54:26;;;;;;;14.90;7.53;;;;;;;;;;5041017;28;20400;-67
2022/02/15 04:56:52;;;;;;;15.27;8.37;;;;;;;;;;5044343;28;20178;-67
2022/02/15 04:59:18;;;;;;;14.20;8.07;;;;;;;;;;5040838;28;20376;-67
2022/02/15 05:01:44;;;;;;;17.50;8.53;;;;;;;;;;5041490;28;20267;-67
2022/02/15 05:04:48;;;;;;;14.03;7.77;;;;;;;;;;5042212;28;20663;-67
2022/02/15 05:06:55;;;;;;;17.80;8.43;;;;;;;;;;5043888;28;20225;-66
2022/02/15 05:09:20;;;;;;;15.10;7.97;;;;;;;;;;5040203;28;20201;-67
2022/02/15 05:11:45;;;;;;;17.93;9.27;;;;;;;;;;5044940;28;20181;-67
2022/02/15 05:14:11;;;;;;;16.60;9.10;;;;;;;;;;5041680;28;20269;-68
2022/02/15 05:16:36;;;;;;;19.93;8.30;;;;;;;;;;5044718;28;20193;-66
2022/02/15 05:19:02;;;;;;;19.30;8.83;;;;;;;;;;5041041;28;20584;-67
2022/02/15 05:21:27;;;;;;;18.83;9.43;;;;;;;;;;5042012;28;20186;-66
2022/02/15 05:23:52;;;;;;;14.80;9.43;;;;;;;;;;5037911;28;20209;-67
2022/02/15 05:26:18;;;;;;;14.77;8.73;;;;;;;;;;5040813;28;20181;-67
2022/02/15 05:28:43;;;;;;;20.00;9.60;;;;;;;;;;5040742;28;20190;-66
2022/02/15 05:31:09;;;;;;;16.73;9.80;;;;;;;;;;5044785;28;20220;-66
2022/02/15 05:33:34;;;;;;;19.83;10.57;;;;;;;;;;5040708;28;20512;-66
2022/02/15 05:36:00;;;;;;;19.00;9.80;;;;;;;;;;5047329;28;20645;-66
2022/02/15 05:38:25;;;;;;;21.87;10.57;;;;;;;;;;5044847;28;20243;-66
2022/02/15 05:40:51;;;;;;;18.47;11.00;;;;;;;;;;5041696;28;20217;-66
2022/02/15 05:43:16;;;;;;;16.83;10.10;;;;;;;;;;5039265;28;20838;-66
2022/02/15 05:45:41;;;;;;;19.50;10.20;;;;;;;;;;5041251;28;20268;-67
2022/02/15 05:48:07;;;;;;;21.37;11.97;;;;;;;;;;5041434;28;20189;-66
2022/02/15 05:50:51;;;;;;;16.97;10.70;;;;;;;;;;5047041;28;20288;-67
2022/02/15 05:53:29;;;;;;;16.73;10.23;;;;;;;;;;5038277;28;20279;-66
2022/02/15 05:55:58;;;;;;;16.40;9.63;;;;;;;;;;5045541;28;20185;-66
2022/02/15 05:58:24;;;;;;;18.03;10.30;;;;;;;;;;5044233;28;20190;-66
2022/02/15 06:00:50;;;;;;;19.10;10.73;;;;;;;;;;5042357;28;20200;-67
2022/02/15 06:06:00;;;;;;;22.53;10.33;;;;;;;;;;5046147;28;20683;-67
2022/02/15 06:08:26;;;;;;;20.30;10.07;;;;;;;;;;5046212;28;20181;-67
2022/02/15 06:10:52;;;;;;;22.67;11.10;;;;;;;;;;5041096;28;20209;-66
2022/02/15 06:13:18;;;;;;;16.73;9.10;;;;;;;;;;5046993;28;20184;-67
2022/02/15 06:15:44;;;;;;;16.77;9.30;;;;;;;;;;5046596;28;20472;-67
2022/02/15 06:18:10;;;;;;;19.10;10.00;;;;;;;;;;5044382;28;20200;-67
2022/02/15 06:20:35;;;;;;;18.17;9.77;;;;;;;;;;5048617;28;20189;-66
2022/02/15 06:23:02;;;;;;;19.67;9.10;;;;;;;;;;5054354;28;20272;-66
2022/02/15 06:25:27;;;;;;;19.60;8.67;;;;;;;;;;5044173;28;20558;-66
2022/02/15 06:27:53;;;;;;;19.57;9.50;;;;;;;;;;5046718;28;20251;-66
2022/02/15 06:30:18;;;;;;;17.60;7.77;;;;;;;;;;5048226;28;20217;-66
2022/02/15 06:32:43;;;;;;;17.70;8.13;;;;;;;;;;5045319;28;20276;-67
2022/02/15 06:35:09;;;;;;;17.37;8.70;;;;;;;;;;5042346;28;20181;-67
2022/02/15 06:37:36;;;;;;;18.23;8.53;;;;;;;;;;5043372;28;20212;-67
2022/02/15 06:40:04;;;;;;;17.50;8.47;;;;;;;;;;5043458;28;20188;-66
2022/02/15 06:42:33;;;;;;;17.97;8.07;;;;;;;;;;5044108;28;20587;-66
2022/02/15 06:44:59;;;;;;;15.13;8.07;;;;;;;;;;5042666;28;20684;-69
2022/02/15 06:47:24;;;;;;;15.33;7.93;;;;;;;;;;5042099;28;20247;-70
2022/02/15 06:49:50;;;;;;;16.00;8.87;;;;;;;;;;5046382;28;20217;-73
2022/02/15 06:52:15;;;;;;;18.90;10.00;;;;;;;;;;5043175;28;20247;-76
2022/02/15 06:54:41;;;;;;;17.10;8.67;;;;;;;;;;5042007;28;20536;-75
2022/02/15 06:57:07;;;;;;;19.83;9.40;;;;;;;;;;5045427;28;20185;-75
2022/02/15 06:59:32;;;;;;;17.63;9.50;;;;;;;;;;5053297;28;20185;-72
2022/02/15 07:01:58;;;;;;;17.53;9.40;;;;;;;;;;5041320;28;20185;-72
2022/02/15 07:04:23;;;;;;;20.13;9.63;;;;;;;;;;5046059;28;20294;-71
2022/02/15 07:06:48;;;;;;;20.83;9.67;;;;;;;;;;5045361;28;20240;-72
2022/02/15 07:09:14;;;;;;;19.57;9.47;;;;;;;;;;5041771;28;20192;-72
2022/02/15 07:11:39;;;;;;;23.70;10.47;;;;;;;;;;5043487;28;20193;-71
2022/02/15 07:14:05;;;;;;;22.07;10.20;;;;;;;;;;5047592;28;20645;-71
2022/02/15 07:16:31;;;;;;;22.20;10.63;;;;;;;;;;5048676;28;20188;-70
2022/02/15 07:18:57;;;;;;;21.27;9.77;;;;;;;;;;5043472;28;20182;-69
2022/02/15 07:21:23;;;;;;;21.37;9.80;;;;;;;;;;5046654;28;20181;-69
2022/02/15 07:23:48;;;;;;;23.20;10.90;;;;;;;;;;5041057;28;20206;-71
2022/02/15 07:26:14;;;;;;;29.40;11.57;;;;;;;;;;5043656;28;20185;-69
2022/02/15 07:28:39;;;;;;;28.90;11.87;;;;;;;;;;5046673;28;20580;-69
2022/02/15 07:31:05;;;;;;;24.53;12.53;;;;;;;;;;5042650;28;20546;-69
2022/02/15 07:33:30;;;;;;;23.93;11.80;;;;;;;;;;5044180;28;20190;-69
2022/02/15 07:35:55;;;;;;;24.33;12.00;;;;;;;;;;5043232;28;20186;-69
2022/02/15 07:38:21;;;;;;;25.77;11.87;;;;;;;;;;5040368;28;20609;-69
2022/02/15 07:40:46;;;;;;;26.23;12.00;;;;;;;;;;5048893;28;20193;-70
2022/02/15 07:43:12;;;;;;;25.43;12.63;;;;;;;;;;5043381;28;20272;-68
2022/02/15 07:45:40;;;;;;;34.53;13.87;;;;;;;;;;5043358;28;20177;-68
2022/02/15 07:48:05;;;;;;;31.47;13.63;;;;;;;;;;5042274;28;20196;-68
2022/02/15 07:50:31;;;;;;;26.57;12.37;;;;;;;;;;5044469;28;20186;-68
2022/02/15 07:52:57;;;;;;;31.07;13.80;;;;;;;;;;5055144;28;20177;-67
2022/02/15 07:55:23;;;;;;;29.40;13.80;;;;;;;;;;5044676;28;20182;-67
2022/02/15 07:57:49;;;;;;;25.83;11.70;;;;;;;;;;5043329;28;20185;-67
2022/02/15 08:00:21;;;;;;;28.33;14.03;;;;;;;;;;5046931;28;20185;-68
2022/02/15 08:02:47;;;;;;;31.63;14.20;;;;;;;;;;5042544;28;20176;-67
2022/02/15 08:05:13;;;;;;;28.13;14.33;;;;;;;;;;5039943;28;20206;-67
2022/02/15 08:07:38;;;;;;;27.93;13.73;;;;;;;;;;5052652;28;20587;-67
2022/02/15 08:10:05;;;;;;;30.07;15.00;;;;;;;;;;5041394;28;20255;-67
2022/02/15 08:12:30;;;;;;;31.87;15.33;;;;;;;;;;5053574;28;20177;-67
2022/02/15 08:14:56;;;;;;;30.70;15.50;;;;;;;;;;5043717;28;20272;-67
2022/02/15 08:17:22;;;;;;;31.90;15.67;;;;;;;;;;5057331;28;20311;-67
2022/02/15 08:19:47;;;;;;;34.87;17.40;;;;;;;;;;5041050;28;20197;-67
2022/02/15 08:22:12;;;;;;;32.00;16.33;;;;;;;;;;5052477;28;20190;-68
2022/02/15 08:24:38;;;;;;;34.67;17.37;;;;;;;;;;5041642;28;20206;-68
2022/02/15 08:27:04;;;;;;;34.20;17.87;;;;;;;;;;5051784;28;20668;-68
2022/02/15 08:29:29;;;;;;;38.33;17.53;;;;;;;;;;5047803;28;20271;-68
2022/02/15 08:31:55;;;;;;;37.10;17.77;;;;;;;;;;5048056;28;20344;-68
2022/02/15 08:34:20;;;;;;;33.33;17.63;;;;;;;;;;5041621;28;20231;-68
2022/02/15 08:36:46;;;;;;;39.40;18.60;;;;;;;;;;5047089;28;20225;-68
2022/02/15 08:39:12;;;;;;;40.92;19.33;;;;;;;;;;5045980;28;20691;-68
2022/02/15 08:41:38;;;;;;;35.63;18.58;;;;;;;;;;5052848;28;20180;-67
2022/02/15 08:44:04;;;;;;;40.28;19.63;;;;;;;;;;5048669;28;20309;-67
2022/02/15 08:46:30;;;;;;;40.38;18.92;;;;;;;;;;5047754;28;20228;-68
2022/02/15 08:48:55;;;;;;;37.58;18.65;;;;;;;;;;5050423;28;20173;-67
2022/02/15 08:51:20;;;;;;;31.57;17.83;;;;;;;;;;5049652;28;20197;-67
2022/02/15 08:53:49;;;;;;;37.38;18.80;;;;;;;;;;5053127;28;20205;-67
2022/02/15 08:56:15;;;;;;;40.93;18.33;;;;;;;;;;5040640;28;20252;-66
2022/02/15 08:58:41;;;;;;;35.72;19.08;;;;;;;;;;5049403;28;20276;-67
2022/02/15 09:01:07;;;;;;;33.30;17.80;;;;;;;;;;5042482;28;20732;-67
2022/02/15 09:03:32;;;;;;;29.48;17.13;;;;;;;;;;5054144;28;20204;-67
2022/02/15 09:06:00;;;;;;;37.13;16.70;;;;;;;;;;5043494;28;20238;-67
2022/02/15 09:08:25;;;;;;;38.80;17.63;;;;;;;;;;5046144;28;20190;-67
2022/02/15 09:10:50;;;;;;;35.05;16.63;;;;;;;;;;5044477;28;20753;-67
2022/02/15 09:13:16;;;;;;;30.90;16.08;;;;;;;;;;5053966;28;20275;-67
2022/02/15 09:15:41;;;;;;;33.60;17.20;;;;;;;;;;5045928;28;20189;-67
2022/02/15 09:18:06;;;;;;;27.05;15.38;;;;;;;;;;5060805;28;20528;-67
2022/02/15 09:20:32;;;;;;;33.55;14.45;;;;;;;;;;5047309;28;20649;-67
2022/02/15 09:22:57;;;;;;;26.48;14.95;;;;;;;;;;5056655;28;20204;-67
2022/02/15 09:25:23;;;;;;;26.30;13.70;;;;;;;;;;5052315;28;20238;-68
2022/02/15 09:27:48;;;;;;;28.70;14.13;;;;;;;;;;5057987;28;20235;-67
2022/02/15 09:30:13;;;;;;;28.15;14.00;;;;;;;;;;5054738;28;20708;-67
2022/02/15 09:32:39;;;;;;;23.85;13.05;;;;;;;;;;5051660;28;20185;-68
2022/02/15 09:35:05;;;;;;;25.30;12.88;;;;;;;;;;5055218;28;20169;-67
2022/02/15 09:37:30;;;;;;;26.23;12.20;;;;;;;;;;5057249;28;20527;-67
2022/02/15 09:39:56;;;;;;;24.77;13.68;;;;;;;;;;5052098;28;20560;-67
2022/02/15 09:42:22;;;;;;;22.13;11.80;;;;;;;;;;5053859;28;20193;-66
2022/02/15 09:44:48;;;;;;;22.58;11.48;;;;;;;;;;5058021;28;20205;-67
2022/02/15 09:47:25;;;;;;;15.05;8.30;;;;;;;;;;5046283;28;20182;-67
2022/02/15 09:49:51;;;;;;;13.75;7.43;;;;;;;;;;5062136;28;20627;-67
2022/02/15 09:52:19;;;;;;;15.68;6.95;;;;;;;;;;5048382;28;20593;-67
2022/02/15 09:54:45;;;;;;;16.25;7.57;;;;;;;;;;5061886;28;20181;-67
2022/02/15 09:57:12;;;;;;;12.40;6.93;;;;;;;;;;5052432;28;20190;-67
2022/02/15 09:59:37;;;;;;;16.42;7.20;;;;;;;;;;5055756;28;20285;-67
2022/02/15 10:02:06;;;;;;;12.68;6.68;;;;;;;;;;5054574;28;20255;-67
2022/02/15 10:04:33;;;;;;;14.48;6.90;;;;;;;;;;5057896;28;20213;-67
2022/02/15 10:07:06;;;;;;;12.25;5.80;;;;;;;;;;5054860;28;20232;-67
2022/02/15 10:09:32;;;;;;;16.00;7.13;;;;;;;;;;5054857;28;20182;-67
2022/02/15 10:12:06;;;;;;;10.73;6.55;;;;;;;;;;5057838;28;20238;-67
2022/02/15 10:14:35;;;;;;;12.45;6.55;;;;;;;;;;5048254;28;20229;-67
2022/02/15 10:17:00;;;;;;;14.13;6.40;;;;;;;;;;5060352;28;20237;-67
2022/02/15 10:19:28;;;;;;;15.02;6.97;;;;;;;;;;5049278;28;20605;-67
2022/02/15 10:21:55;;;;;;;15.73;6.68;;;;;;;;;;5060438;28;20270;-67
2022/02/15 10:24:25;;;;;;;13.30;7.38;;;;;;;;;;5051586;28;20186;-67
2022/02/15 10:26:54;;;;;;;16.23;7.55;;;;;;;;;;5058728;28;20656;-67
2022/02/15 10:29:20;;;;;;;14.20;7.30;;;;;;;;;;5047533;28;20200;-67
2022/02/15 10:31:46;;;;;;;20.30;7.65;;;;;;;;;;5055687;28;20220;-67
2022/02/15 10:34:11;;;;;;;14.70;7.80;;;;;;;;;;5046205;28;20185;-67
2022/02/15 10:36:37;;;;;;;16.73;7.32;;;;;;;;;;5057032;28;20185;-67
2022/02/15 10:39:03;;;;;;;14.93;6.60;;;;;;;;;;5050812;28;20261;-67
2022/02/15 10:41:33;;;;;;;15.70;6.72;;;;;;;;;;5059479;28;20605;-66
2022/02/15 10:43:59;;;;;;;18.20;6.93;;;;;;;;;;5052428;28;20201;-66
2022/02/15 10:46:29;;;;;;;12.93;5.65;;;;;;;;;;5051315;28;20182;-66
2022/02/15 10:48:57;;;;;;;10.63;6.47;;;;;;;;;;5055051;28;20540;-66
2022/02/15 10:51:24;;;;;;;13.70;7.20;;;;;;;;;;5052244;28;20212;-67
2022/02/15 10:53:49;;;;;;;11.05;5.45;;;;;;;;;;5054436;28;20185;-66
2022/02/15 10:56:15;;;;;;;20.13;6.90;;;;;;;;;;5047978;28;20177;-66
2022/02/15 10:58:41;;;;;;;13.18;5.70;;;;;;;;;;5056435;28;20181;-66
2022/02/15 11:01:09;;;;;;;14.60;5.45;;;;;;;;;;5048488;28;20185;-67
2022/02/15 11:03:39;;;;;;;11.88;5.05;;;;;;;;;;5048911;28;20270;-66
2022/02/15 11:06:05;;;;;;;13.50;5.07;;;;;;;;;;5040177;28;20477;-66
2022/02/15 11:08:32;;;;;;;11.23;4.82;;;;;;;;;;5042119;28;20188;-66
2022/02/15 11:11:19;;;;;;;12.32;4.35;;;;;;;;;;5043814;28;20189;-66
2022/02/15 11:13:45;;;;;;;7.95;3.60;;;;;;;;;;5040613;28;20180;-66
2022/02/15 11:16:13;;;;;;;6.38;2.80;;;;;;;;;;5051383;28;20188;-67
2022/02/15 11:18:38;;;;;;;10.15;2.75;;;;;;;;;;5044566;28;20189;-66
2022/02/15 11:21:06;;;;;;;9.85;2.40;;;;;;;;;;5055824;28;20190;-66
2022/02/15 11:23:36;;;;;;;11.35;2.65;;;;;;;;;;5042100;28;20569;-67
2022/02/15 11:26:10;;;;;;;8.02;1.98;;;;;;;;;;5050745;28;20438;-67
2022/02/15 11:28:49;;;;;;;8.00;1.60;;;;;;;;;;5049698;28;20739;-66
2022/02/15 11:31:53;;;;;;;6.60;1.58;;;;;;;;;;5050791;28;20262;-66
2022/02/15 11:34:31;;;;;;;5.28;1.50;;;;;;;;;;5042486;28;20235;-65
2022/02/15 11:36:57;;;;;;;4.95;0.98;;;;;;;;;;5044404;28;20240;-65
2022/02/15 11:39:24;;;;;;;8.50;1.48;;;;;;;;;;5052224;28;20192;-65
2022/02/15 11:41:55;;;;;;;5.03;1.42;;;;;;;;;;5047247;28;21225;-66
2022/02/15 11:44:35;;;;;;;7.28;1.80;;;;;;;;;;5050937;28;20216;-66
2022/02/15 11:47:17;;;;;;;8.98;2.08;;;;;;;;;;5045976;28;20188;-67
2022/02/15 11:49:59;;;;;;;10.48;2.15;;;;;;;;;;5047026;28;20182;-67
2022/02/15 11:52:27;;;;;;;5.50;1.70;;;;;;;;;;5043829;28;20194;-68
2022/02/15 11:55:00;;;;;;;4.45;1.77;;;;;;;;;;5045180;28;20196;-67
2022/02/15 11:57:25;;;;;;;8.23;2.15;;;;;;;;;;5043983;28;20537;-66
2022/02/15 11:59:54;;;;;;;8.80;2.38;;;;;;;;;;5042357;28;20190;-66
2022/02/15 12:02:19;;;;;;;6.22;1.90;;;;;;;;;;5038828;28;20223;-67
2022/02/15 12:04:53;;;;;;;5.72;1.50;;;;;;;;;;5041336;28;20267;-67
2022/02/15 12:07:22;;;;;;;3.22;1.20;;;;;;;;;;5045976;28;20245;-67
2022/02/15 12:09:52;;;;;;;5.63;1.30;;;;;;;;;;5041376;28;20700;-67
2022/02/15 12:12:19;;;;;;;10.20;1.35;;;;;;;;;;5036923;28;20200;-67
2022/02/15 12:14:53;;;;;;;2.05;1.20;;;;;;;;;;5040442;28;20197;-67
2022/02/15 12:17:27;;;;;;;6.30;1.73;;;;;;;;;;5037690;28;20192;-67
2022/02/15 12:19:57;;;;;;;5.28;1.42;;;;;;;;;;5041223;28;20185;-67
2022/02/15 12:22:24;;;;;;;6.25;1.00;;;;;;;;;;5043460;28;20218;-66
2022/02/15 12:24:54;;;;;;;9.88;1.17;;;;;;;;;;5040267;28;20201;-66
2022/02/15 12:27:20;;;;;;;6.25;1.42;;;;;;;;;;5044056;28;20181;-67
2022/02/15 12:29:55;;;;;;;5.32;1.17;;;;;;;;;;5045647;28;20292;-66
2022/02/15 12:32:26;;;;;;;2.45;1.00;;;;;;;;;;5041533;28;20173;-66
2022/02/15 12:34:53;;;;;;;6.82;1.10;;;;;;;;;;5038612;28;20421;-66
2022/02/15 12:37:20;;;;;;;4.68;1.10;;;;;;;;;;5043347;28;20542;-66
2022/02/15 12:39:46;;;;;;;2.83;1.25;;;;;;;;;;5045411;28;20216;-66
2022/02/15 12:42:16;;;;;;;6.50;1.00;;;;;;;;;;5040989;28;20178;-66
2022/02/15 12:44:43;;;;;;;5.07;1.15;;;;;;;;;;5043828;28;20266;-67
2022/02/15 12:47:08;;;;;;;5.40;0.80;;;;;;;;;;5045594;28;20660;-67
2022/02/15 12:49:34;;;;;;;4.03;0.98;;;;;;;;;;5039561;28;20268;-67
2022/02/15 12:51:59;;;;;;;4.90;1.00;;;;;;;;;;5033783;28;20255;-67
2022/02/15 12:54:25;;;;;;;2.72;0.52;;;;;;;;;;5043586;28;20550;-66
2022/02/15 12:56:50;;;;;;;4.35;1.05;;;;;;;;;;5044230;28;20197;-66
2022/02/15 12:59:24;;;;;;;7.38;1.17;;;;;;;;;;5047759;28;20176;-66
2022/02/15 13:01:57;;;;;;;4.40;1.10;;;;;;;;;;5053921;28;20582;-67
2022/02/15 13:04:23;;;;;;;3.55;1.05;;;;;;;;;;5051244;28;20821;-66
2022/02/15 13:06:52;;;;;;;6.53;1.25;;;;;;;;;;5056509;28;20228;-67
2022/02/15 13:09:18;;;;;;;5.65;1.20;;;;;;;;;;5054767;28;20189;-66
2022/02/15 13:11:44;;;;;;;4.40;1.00;;;;;;;;;;5055923;28;20271;-66
2022/02/15 13:14:11;;;;;;;4.40;0.90;;;;;;;;;;5055521;28;20263;-66
2022/02/15 13:16:45;;;;;;;7.72;1.10;;;;;;;;;;5049401;28;20193;-66
2022/02/15 13:19:10;;;;;;;4.28;1.25;;;;;;;;;;5055938;28;20544;-67
2022/02/15 13:21:46;;;;;;;8.85;1.17;;;;;;;;;;5048488;28;20264;-67
2022/02/15 13:24:19;;;;;;;2.88;1.00;;;;;;;;;;5058374;28;20216;-66
2022/02/15 13:26:47;;;;;;;4.82;1.30;;;;;;;;;;5049160;28;20234;-66
2022/02/15 13:29:24;;;;;;;5.22;0.95;;;;;;;;;;5055654;28;20182;-66
2022/02/15 13:31:54;;;;;;;7.03;1.08;;;;;;;;;;5051225;28;20200;-67
2022/02/15 13:34:35;;;;;;;3.58;1.00;;;;;;;;;;5052048;28;20193;-66
2022/02/15 13:37:04;;;;;;;4.45;1.42;;;;;;;;;;5052308;28;20643;-67
2022/02/15 13:39:30;;;;;;;3.83;1.63;;;;;;;;;;5052778;28;20220;-67
2022/02/15 13:41:56;;;;;;;5.97;1.67;;;;;;;;;;5052228;28;20185;-66
2022/02/15 13:44:22;;;;;;;7.47;1.60;;;;;;;;;;5050166;28;20224;-67
2022/02/15 13:46:47;;;;;;;5.30;2.03;;;;;;;;;;5053488;28;20216;-67
2022/02/15 13:49:13;;;;;;;6.20;1.83;;;;;;;;;;5044548;28;20193;-67
2022/02/15 13:51:38;;;;;;;4.72;1.77;;;;;;;;;;5053071;28;20186;-66
2022/02/15 13:54:06;;;;;;;6.47;2.00;;;;;;;;;;5050189;28;20650;-67
2022/02/15 13:56:33;;;;;;;7.20;2.50;;;;;;;;;;5059225;28;20181;-66
2022/02/15 13:59:05;;;;;;;6.70;2.20;;;;;;;;;;5044369;28;20621;-67
2022/02/15 14:01:34;;;;;;;4.30;1.98;;;;;;;;;;5050822;28;20301;-67
2022/02/15 14:03:59;;;;;;;6.38;2.30;;;;;;;;;;5044244;28;20220;-66
2022/02/15 14:06:25;;;;;;;5.05;2.33;;;;;;;;;;5056758;28;20233;-66
2022/02/15 14:08:50;;;;;;;3.97;2.10;;;;;;;;;;5049691;28;20185;-66
2022/02/15 14:11:17;;;;;;;4.28;1.75;;;;;;;;;;5049179;28;20641;-66
2022/02/15 14:13:43;;;;;;;5.35;2.53;;;;;;;;;;5042614;28;20200;-66
2022/02/15 14:16:09;;;;;;;4.07;1.90;;;;;;;;;;5045959;28;20664;-66
2022/02/15 14:18:35;;;;;;;4.55;1.90;;;;;;;;;;5051320;28;20196;-66
2022/02/15 14:21:00;;;;;;;4.05;2.00;;;;;;;;;;5050068;28;21183;-67
2022/02/15 14:23:26;;;;;;;9.05;2.00;;;;;;;;;;5047676;28;20724;-67
2022/02/15 14:25:52;;;;;;;5.75;1.80;;;;;;;;;;5048787;28;20190;-66
2022/02/15 14:28:17;;;;;;;7.40;2.00;;;;;;;;;;5048712;28;20258;-67
2022/02/15 14:30:44;;;;;;;7.15;1.63;;;;;;;;;;5053433;28;20202;-66
2022/02/15 14:33:10;;;;;;;4.65;1.40;;;;;;;;;;5047308;28;20177;-68
2022/02/15 14:35:36;;;;;;;4.57;1.38;;;;;;;;;;5051862;28;20259;-67